METAR AND TAF INFORMATION
METAR FOR PAOH
ADDS - METARS form results

(0959 UTC 16 January 2019)
Data provider http://aviationweather.gov/metar/data/
 
METAR text: PAOH 160956Z AUTO 00000KT 10SM CLR M03/M03 A2979 RMK AO2 SLP089 T10281033 FZRANO
Conditions at: PAOH (HOONAH , AK, US) observed 0956 UTC 16 January 2019
Temperature: -2.8°C (27°F)
Dewpoint: -3.3°C (26°F) [RH = 96%]
Pressure (altimeter): 29.79 inches Hg (1008.9 mb)
[Sea-level pressure: 1008.9 mb]
Winds: calm
Visibility: 10 or more miles (16+ km)
Ceiling: at least 12,000 feet AGL
Clouds: sky clear below 12,000 feet AGL
Weather: automated observation with no human augmentation;
there may or may not be significant weather present at this time

 AIRPORT MAP

Esri Leaflet Quickstart
 RUNWAY INFORMATION
Runway 06 Runway length 2997 ft Runway width 75 ft
Runway elevation 15 ft Runway displaced threshold 0 ft Runway heading 78
Runway 24 Runway length 2997 ft Runway width 75 ft
Runway elevation 19 ft Runway displaced threshold 0 ft Runway heading 258

 AIRPORT FREQUENCIES

 AIRPORT NEAR NAVIGATION AIDS
Type VORTAC Name Sisters Island Frequency 114000 KHZ



Powered by Virtual Airlines Manager [v2.6.2]